sensor_id;sensor_type;location;lat;lon;timestamp;temperature;humidity
34135;DHT22;20410;55.578;12.968;2023-03-25T00:00:15;7.00;1.00
34135;DHT22;20410;55.578;12.968;2023-03-25T00:02:46;7.00;1.00
34135;DHT22;20410;55.578;12.968;2023-03-25T00:05:14;7.00;1.00
34135;DHT22;20410;55.578;12.968;2023-03-25T00:07:43;6.90;1.00
34135;DHT22;20410;55.578;12.968;2023-03-25T00:10:11;7.00;1.00
34135;DHT22;20410;55.578;12.968;2023-03-25T00:12:37;7.00;1.00
34135;DHT22;20410;55.578;12.968;2023-03-25T00:15:07;7.00;1.00
34135;DHT22;20410;55.578;12.968;2023-03-25T00:17:32;7.00;1.00
34135;DHT22;20410;55.578;12.968;2023-03-25T00:20:01;7.00;1.00
34135;DHT22;20410;55.578;12.968;2023-03-25T00:22:30;7.00;1.00
34135;DHT22;20410;55.578;12.968;2023-03-25T00:24:55;7.00;1.00
34135;DHT22;20410;55.578;12.968;2023-03-25T00:27:21;7.10;1.00
34135;DHT22;20410;55.578;12.968;2023-03-25T00:29:46;7.10;1.00
34135;DHT22;20410;55.578;12.968;2023-03-25T00:32:14;7.10;1.00
34135;DHT22;20410;55.578;12.968;2023-03-25T00:34:40;7.10;1.00
34135;DHT22;20410;55.578;12.968;2023-03-25T00:37:12;7.10;1.00
34135;DHT22;20410;55.578;12.968;2023-03-25T00:39:42;7.10;1.00
34135;DHT22;20410;55.578;12.968;2023-03-25T00:42:08;7.00;1.00
34135;DHT22;20410;55.578;12.968;2023-03-25T00:44:35;7.00;1.00
34135;DHT22;20410;55.578;12.968;2023-03-25T00:47:01;7.10;1.00
34135;DHT22;20410;55.578;12.968;2023-03-25T00:49:26;7.00;1.00
34135;DHT22;20410;55.578;12.968;2023-03-25T00:51:54;7.10;1.00
34135;DHT22;20410;55.578;12.968;2023-03-25T00:54:20;7.10;1.00
34135;DHT22;20410;55.578;12.968;2023-03-25T00:56:46;7.20;1.00
34135;DHT22;20410;55.578;12.968;2023-03-25T00:59:12;7.30;1.00
34135;DHT22;20410;55.578;12.968;2023-03-25T01:01:38;7.40;1.00
34135;DHT22;20410;55.578;12.968;2023-03-25T01:04:05;7.50;1.00
34135;DHT22;20410;55.578;12.968;2023-03-25T01:06:40;7.50;1.00
34135;DHT22;20410;55.578;12.968;2023-03-25T01:09:11;7.50;1.00
34135;DHT22;20410;55.578;12.968;2023-03-25T01:11:42;7.50;1.00
34135;DHT22;20410;55.578;12.968;2023-03-25T01:14:16;7.60;1.00
34135;DHT22;20410;55.578;12.968;2023-03-25T01:16:42;7.60;1.00
34135;DHT22;20410;55.578;12.968;2023-03-25T01:19:09;7.60;1.00
34135;DHT22;20410;55.578;12.968;2023-03-25T01:21:35;7.70;1.00
34135;DHT22;20410;55.578;12.968;2023-03-25T01:24:02;7.70;1.00
34135;DHT22;20410;55.578;12.968;2023-03-25T01:26:28;7.60;1.00
34135;DHT22;20410;55.578;12.968;2023-03-25T01:28:54;7.60;1.00
34135;DHT22;20410;55.578;12.968;2023-03-25T01:31:19;7.50;1.00
34135;DHT22;20410;55.578;12.968;2023-03-25T01:33:47;7.40;1.00
34135;DHT22;20410;55.578;12.968;2023-03-25T01:36:13;7.30;1.00
34135;DHT22;20410;55.578;12.968;2023-03-25T01:38:39;7.30;1.00
34135;DHT22;20410;55.578;12.968;2023-03-25T01:41:06;7.30;1.00
34135;DHT22;20410;55.578;12.968;2023-03-25T01:43:33;7.30;1.00
34135;DHT22;20410;55.578;12.968;2023-03-25T01:45:59;7.30;1.00
34135;DHT22;20410;55.578;12.968;2023-03-25T01:48:32;7.20;1.00
34135;DHT22;20410;55.578;12.968;2023-03-25T01:51:05;7.20;1.00
34135;DHT22;20410;55.578;12.968;2023-03-25T01:53:34;7.20;1.00
34135;DHT22;20410;55.578;12.968;2023-03-25T01:56:02;7.10;1.00
34135;DHT22;20410;55.578;12.968;2023-03-25T01:58:32;7.10;1.00
34135;DHT22;20410;55.578;12.968;2023-03-25T02:00:59;7.10;1.00
34135;DHT22;20410;55.578;12.968;2023-03-25T02:03:26;7.10;1.00
34135;DHT22;20410;55.578;12.968;2023-03-25T02:06:06;7.10;1.00
34135;DHT22;20410;55.578;12.968;2023-03-25T02:08:36;7.20;1.00
34135;DHT22;20410;55.578;12.968;2023-03-25T02:11:05;7.30;1.00
34135;DHT22;20410;55.578;12.968;2023-03-25T02:13:31;7.40;1.00
34135;DHT22;20410;55.578;12.968;2023-03-25T02:24:48;7.60;1.00
34135;DHT22;20410;55.578;12.968;2023-03-25T02:27:45;7.60;1.00
34135;DHT22;20410;55.578;12.968;2023-03-25T02:41:00;7.80;1.00
34135;DHT22;20410;55.578;12.968;2023-03-25T02:43:45;7.70;1.00
34135;DHT22;20410;55.578;12.968;2023-03-25T02:46:17;7.80;1.00
34135;DHT22;20410;55.578;12.968;2023-03-25T02:51:21;7.80;1.00
34135;DHT22;20410;55.578;12.968;2023-03-25T02:53:51;7.80;1.00
34135;DHT22;20410;55.578;12.968;2023-03-25T02:56:19;7.80;1.00
34135;DHT22;20410;55.578;12.968;2023-03-25T02:58:48;7.70;1.00
34135;DHT22;20410;55.578;12.968;2023-03-25T03:01:16;7.60;1.00
34135;DHT22;20410;55.578;12.968;2023-03-25T03:03:41;7.60;1.00
34135;DHT22;20410;55.578;12.968;2023-03-25T03:06:07;7.60;3.20
34135;DHT22;20410;55.578;12.968;2023-03-25T03:08:51;7.50;1.00
34135;DHT22;20410;55.578;12.968;2023-03-25T03:17:13;7.40;24.90
34135;DHT22;20410;55.578;12.968;2023-03-25T03:19:49;7.50;35.00
34135;DHT22;20410;55.578;12.968;2023-03-25T03:22:40;7.50;36.10
34135;DHT22;20410;55.578;12.968;2023-03-25T03:28:16;7.60;41.00
34135;DHT22;20410;55.578;12.968;2023-03-25T03:38:25;7.60;52.80
34135;DHT22;20410;55.578;12.968;2023-03-25T03:40:55;7.60;45.50
34135;DHT22;20410;55.578;12.968;2023-03-25T03:43:29;7.60;42.70
34135;DHT22;20410;55.578;12.968;2023-03-25T03:46:14;7.60;58.30
34135;DHT22;20410;55.578;12.968;2023-03-25T03:48:44;7.60;70.30
34135;DHT22;20410;55.578;12.968;2023-03-25T03:51:18;7.60;77.30
34135;DHT22;20410;55.578;12.968;2023-03-25T03:53:52;7.70;88.70
34135;DHT22;20410;55.578;12.968;2023-03-25T03:56:30;7.70;92.30
34135;DHT22;20410;55.578;12.968;2023-03-25T03:59:07;7.80;94.10
34135;DHT22;20410;55.578;12.968;2023-03-25T04:01:40;7.80;98.70
34135;DHT22;20410;55.578;12.968;2023-03-25T04:04:21;7.80;96.70
34135;DHT22;20410;55.578;12.968;2023-03-25T04:07:12;7.80;99.50
34135;DHT22;20410;55.578;12.968;2023-03-25T04:12:21;7.90;99.90
34135;DHT22;20410;55.578;12.968;2023-03-25T04:14:47;8.00;99.50
34135;DHT22;20410;55.578;12.968;2023-03-25T04:17:13;8.00;95.70
34135;DHT22;20410;55.578;12.968;2023-03-25T04:19:38;8.00;93.70
34135;DHT22;20410;55.578;12.968;2023-03-25T04:22:04;7.90;93.20
34135;DHT22;20410;55.578;12.968;2023-03-25T04:24:31;7.90;90.90
34135;DHT22;20410;55.578;12.968;2023-03-25T04:26:58;7.90;93.00
34135;DHT22;20410;55.578;12.968;2023-03-25T04:29:31;7.90;84.00
34135;DHT22;20410;55.578;12.968;2023-03-25T04:31:58;7.90;93.90
34135;DHT22;20410;55.578;12.968;2023-03-25T04:34:23;7.90;93.30
34135;DHT22;20410;55.578;12.968;2023-03-25T04:36:49;7.90;91.00
34135;DHT22;20410;55.578;12.968;2023-03-25T04:39:16;8.00;93.30
34135;DHT22;20410;55.578;12.968;2023-03-25T04:41:42;8.00;87.70
34135;DHT22;20410;55.578;12.968;2023-03-25T04:44:09;8.00;93.30
34135;DHT22;20410;55.578;12.968;2023-03-25T04:46:35;8.00;83.50
34135;DHT22;20410;55.578;12.968;2023-03-25T04:49:05;8.00;78.60
34135;DHT22;20410;55.578;12.968;2023-03-25T04:51:38;7.90;82.20
34135;DHT22;20410;55.578;12.968;2023-03-25T04:54:06;7.90;77.00
34135;DHT22;20410;55.578;12.968;2023-03-25T04:56:32;7.90;78.40
34135;DHT22;20410;55.578;12.968;2023-03-25T04:58:58;7.90;76.00
34135;DHT22;20410;55.578;12.968;2023-03-25T05:01:27;7.80;75.60
34135;DHT22;20410;55.578;12.968;2023-03-25T05:04:01;7.80;85.40
34135;DHT22;20410;55.578;12.968;2023-03-25T05:06:38;7.80;81.60
34135;DHT22;20410;55.578;12.968;2023-03-25T05:09:05;7.80;80.60
34135;DHT22;20410;55.578;12.968;2023-03-25T05:11:32;7.80;86.50
34135;DHT22;20410;55.578;12.968;2023-03-25T05:13:58;7.80;87.50
34135;DHT22;20410;55.578;12.968;2023-03-25T05:16:23;7.80;76.50
34135;DHT22;20410;55.578;12.968;2023-03-25T05:18:49;7.70;87.00
34135;DHT22;20410;55.578;12.968;2023-03-25T05:21:15;7.80;90.30
34135;DHT22;20410;55.578;12.968;2023-03-25T05:23:40;7.80;92.60
34135;DHT22;20410;55.578;12.968;2023-03-25T05:26:08;7.80;81.60
34135;DHT22;20410;55.578;12.968;2023-03-25T05:28:34;7.80;83.60
34135;DHT22;20410;55.578;12.968;2023-03-25T05:31:00;7.90;93.90
34135;DHT22;20410;55.578;12.968;2023-03-25T05:33:26;7.90;95.80
34135;DHT22;20410;55.578;12.968;2023-03-25T05:35:51;8.00;97.70
34135;DHT22;20410;55.578;12.968;2023-03-25T05:38:17;8.00;99.80
34135;DHT22;20410;55.578;12.968;2023-03-25T05:40:44;8.10;94.60
34135;DHT22;20410;55.578;12.968;2023-03-25T05:43:11;8.10;95.70
34135;DHT22;20410;55.578;12.968;2023-03-25T05:45:37;8.20;97.20
34135;DHT22;20410;55.578;12.968;2023-03-25T05:48:03;8.20;98.80
34135;DHT22;20410;55.578;12.968;2023-03-25T05:50:29;8.30;99.00
34135;DHT22;20410;55.578;12.968;2023-03-25T05:52:55;8.30;95.40
34135;DHT22;20410;55.578;12.968;2023-03-25T05:55:22;8.30;92.20
34135;DHT22;20410;55.578;12.968;2023-03-25T05:57:48;8.40;92.70
34135;DHT22;20410;55.578;12.968;2023-03-25T06:00:16;8.40;92.10
34135;DHT22;20410;55.578;12.968;2023-03-25T06:02:46;8.30;81.80
34135;DHT22;20410;55.578;12.968;2023-03-25T06:05:14;8.20;75.20
34135;DHT22;20410;55.578;12.968;2023-03-25T06:07:44;8.20;87.30
34135;DHT22;20410;55.578;12.968;2023-03-25T06:10:13;8.10;87.80
34135;DHT22;20410;55.578;12.968;2023-03-25T06:12:42;8.00;90.00
34135;DHT22;20410;55.578;12.968;2023-03-25T06:15:09;8.00;92.70
34135;DHT22;20410;55.578;12.968;2023-03-25T06:17:35;8.00;97.50
34135;DHT22;20410;55.578;12.968;2023-03-25T06:20:06;7.90;99.90
34135;DHT22;20410;55.578;12.968;2023-03-25T06:22:41;7.90;99.90
34135;DHT22;20410;55.578;12.968;2023-03-25T06:25:08;7.90;99.90
34135;DHT22;20410;55.578;12.968;2023-03-25T06:27:35;7.90;99.90
34135;DHT22;20410;55.578;12.968;2023-03-25T06:30:06;7.80;99.90
34135;DHT22;20410;55.578;12.968;2023-03-25T06:32:32;7.80;99.90
34135;DHT22;20410;55.578;12.968;2023-03-25T06:34:58;7.90;99.90
34135;DHT22;20410;55.578;12.968;2023-03-25T06:37:23;7.90;99.90
34135;DHT22;20410;55.578;12.968;2023-03-25T06:39:51;7.90;99.90
34135;DHT22;20410;55.578;12.968;2023-03-25T06:42:24;7.90;99.90
34135;DHT22;20410;55.578;12.968;2023-03-25T06:44:50;8.00;99.90
34135;DHT22;20410;55.578;12.968;2023-03-25T06:47:16;8.00;99.90
34135;DHT22;20410;55.578;12.968;2023-03-25T06:49:42;8.00;99.90
34135;DHT22;20410;55.578;12.968;2023-03-25T06:52:07;8.10;99.90
34135;DHT22;20410;55.578;12.968;2023-03-25T06:54:33;8.20;99.90
34135;DHT22;20410;55.578;12.968;2023-03-25T06:56:58;8.20;99.90
34135;DHT22;20410;55.578;12.968;2023-03-25T06:59:24;8.30;99.90
34135;DHT22;20410;55.578;12.968;2023-03-25T07:01:50;8.30;99.90
34135;DHT22;20410;55.578;12.968;2023-03-25T07:04:15;8.30;99.90
34135;DHT22;20410;55.578;12.968;2023-03-25T07:06:41;8.30;99.90
34135;DHT22;20410;55.578;12.968;2023-03-25T07:09:07;8.30;99.90
34135;DHT22;20410;55.578;12.968;2023-03-25T07:11:32;8.30;99.90
34135;DHT22;20410;55.578;12.968;2023-03-25T07:13:58;8.30;99.90
34135;DHT22;20410;55.578;12.968;2023-03-25T07:16:24;8.40;99.90
34135;DHT22;20410;55.578;12.968;2023-03-25T07:18:50;8.40;99.90
34135;DHT22;20410;55.578;12.968;2023-03-25T07:21:17;8.40;99.90
34135;DHT22;20410;55.578;12.968;2023-03-25T07:23:43;8.50;99.90
34135;DHT22;20410;55.578;12.968;2023-03-25T07:26:09;8.50;99.90
34135;DHT22;20410;55.578;12.968;2023-03-25T07:28:34;8.50;99.90
34135;DHT22;20410;55.578;12.968;2023-03-25T07:31:08;8.50;99.90
34135;DHT22;20410;55.578;12.968;2023-03-25T07:33:34;8.60;99.90
34135;DHT22;20410;55.578;12.968;2023-03-25T07:35:59;8.70;99.90
34135;DHT22;20410;55.578;12.968;2023-03-25T07:38:25;8.80;99.90
34135;DHT22;20410;55.578;12.968;2023-03-25T07:40:50;8.90;99.90
34135;DHT22;20410;55.578;12.968;2023-03-25T07:43:16;8.90;99.90
34135;DHT22;20410;55.578;12.968;2023-03-25T07:45:41;9.00;99.90
34135;DHT22;20410;55.578;12.968;2023-03-25T07:48:07;9.20;99.90
34135;DHT22;20410;55.578;12.968;2023-03-25T07:50:39;9.20;99.90
34135;DHT22;20410;55.578;12.968;2023-03-25T07:53:05;9.30;99.90
34135;DHT22;20410;55.578;12.968;2023-03-25T07:55:30;9.20;99.90
34135;DHT22;20410;55.578;12.968;2023-03-25T07:57:56;9.30;99.90
34135;DHT22;20410;55.578;12.968;2023-03-25T08:00:23;9.40;99.90
34135;DHT22;20410;55.578;12.968;2023-03-25T08:02:48;9.40;99.90
34135;DHT22;20410;55.578;12.968;2023-03-25T08:05:14;9.50;99.90
34135;DHT22;20410;55.578;12.968;2023-03-25T08:07:46;9.50;99.90
34135;DHT22;20410;55.578;12.968;2023-03-25T08:10:12;9.60;99.60
34135;DHT22;20410;55.578;12.968;2023-03-25T08:12:39;9.50;95.70
34135;DHT22;20410;55.578;12.968;2023-03-25T08:15:06;9.40;90.40
34135;DHT22;20410;55.578;12.968;2023-03-25T08:17:32;9.40;80.10
34135;DHT22;20410;55.578;12.968;2023-03-25T08:19:58;9.40;86.10
34135;DHT22;20410;55.578;12.968;2023-03-25T08:22:25;9.30;81.40
34135;DHT22;20410;55.578;12.968;2023-03-25T08:24:51;9.40;91.10
34135;DHT22;20410;55.578;12.968;2023-03-25T08:27:17;9.30;86.20
34135;DHT22;20410;55.578;12.968;2023-03-25T08:29:44;9.30;82.70
34135;DHT22;20410;55.578;12.968;2023-03-25T08:32:11;9.30;81.80
34135;DHT22;20410;55.578;12.968;2023-03-25T08:34:37;9.30;80.70
34135;DHT22;20410;55.578;12.968;2023-03-25T08:37:06;9.20;77.10
34135;DHT22;20410;55.578;12.968;2023-03-25T08:39:32;9.20;80.80
34135;DHT22;20410;55.578;12.968;2023-03-25T08:42:07;9.10;79.60
34135;DHT22;20410;55.578;12.968;2023-03-25T08:44:33;9.10;88.90
34135;DHT22;20410;55.578;12.968;2023-03-25T08:46:59;9.00;78.80
34135;DHT22;20410;55.578;12.968;2023-03-25T08:49:25;9.00;84.60
34135;DHT22;20410;55.578;12.968;2023-03-25T08:51:51;8.90;91.30
34135;DHT22;20410;55.578;12.968;2023-03-25T08:54:17;8.90;80.90
34135;DHT22;20410;55.578;12.968;2023-03-25T08:56:42;8.80;81.30
34135;DHT22;20410;55.578;12.968;2023-03-25T08:59:08;8.80;87.30
34135;DHT22;20410;55.578;12.968;2023-03-25T09:01:33;8.70;93.00
34135;DHT22;20410;55.578;12.968;2023-03-25T09:03:59;8.70;95.70
34135;DHT22;20410;55.578;12.968;2023-03-25T09:06:25;8.70;91.40
34135;DHT22;20410;55.578;12.968;2023-03-25T09:08:51;8.70;94.80
34135;DHT22;20410;55.578;12.968;2023-03-25T09:11:17;8.70;97.50
34135;DHT22;20410;55.578;12.968;2023-03-25T09:13:42;8.70;99.90
34135;DHT22;20410;55.578;12.968;2023-03-25T09:16:08;8.90;99.90
34135;DHT22;20410;55.578;12.968;2023-03-25T09:18:34;8.90;99.90
34135;DHT22;20410;55.578;12.968;2023-03-25T09:21:02;9.00;99.90
34135;DHT22;20410;55.578;12.968;2023-03-25T09:23:28;9.00;96.50
34135;DHT22;20410;55.578;12.968;2023-03-25T09:25:54;9.00;91.20
34135;DHT22;20410;55.578;12.968;2023-03-25T09:28:20;9.00;88.90
34135;DHT22;20410;55.578;12.968;2023-03-25T09:30:46;9.00;88.00
34135;DHT22;20410;55.578;12.968;2023-03-25T09:33:12;8.90;86.10
34135;DHT22;20410;55.578;12.968;2023-03-25T09:35:41;9.00;85.70
34135;DHT22;20410;55.578;12.968;2023-03-25T09:38:07;9.00;90.40
34135;DHT22;20410;55.578;12.968;2023-03-25T09:40:33;9.10;98.10
34135;DHT22;20410;55.578;12.968;2023-03-25T09:43:18;9.20;97.80
34135;DHT22;20410;55.578;12.968;2023-03-25T09:45:46;9.40;99.90
34135;DHT22;20410;55.578;12.968;2023-03-25T09:51:11;9.80;99.50
34135;DHT22;20410;55.578;12.968;2023-03-25T09:54:32;9.90;96.20
34135;DHT22;20410;55.578;12.968;2023-03-25T09:56:40;10.10;96.20
34135;DHT22;20410;55.578;12.968;2023-03-25T09:59:13;10.10;69.00
34135;DHT22;20410;55.578;12.968;2023-03-25T10:01:47;10.10;70.40
34135;DHT22;20410;55.578;12.968;2023-03-25T10:04:31;10.00;43.20
34135;DHT22;20410;55.578;12.968;2023-03-25T10:18:33;9.80;30.90
34135;DHT22;20410;55.578;12.968;2023-03-25T10:21:15;9.90;31.20
34135;DHT22;20410;55.578;12.968;2023-03-25T10:29:01;10.20;67.70
34135;DHT22;20410;55.578;12.968;2023-03-25T10:31:32;10.40;96.30
34135;DHT22;20410;55.578;12.968;2023-03-25T10:34:02;10.70;98.80
34135;DHT22;20410;55.578;12.968;2023-03-25T10:36:40;11.00;99.90
34135;DHT22;20410;55.578;12.968;2023-03-25T10:39:17;11.20;99.90
34135;DHT22;20410;55.578;12.968;2023-03-25T10:41:55;11.40;68.50
34135;DHT22;20410;55.578;12.968;2023-03-25T10:44:24;11.50;78.20
34135;DHT22;20410;55.578;12.968;2023-03-25T10:47:04;11.60;67.60
34135;DHT22;20410;55.578;12.968;2023-03-25T10:49:31;11.60;19.70
34135;DHT22;20410;55.578;12.968;2023-03-25T10:51:58;11.50;25.10
34135;DHT22;20410;55.578;12.968;2023-03-25T10:54:31;11.50;7.80
34135;DHT22;20410;55.578;12.968;2023-03-25T10:57:01;11.50;2.40
34135;DHT22;20410;55.578;12.968;2023-03-25T10:59:37;11.60;1.00
34135;DHT22;20410;55.578;12.968;2023-03-25T11:02:18;11.70;18.10
34135;DHT22;20410;55.578;12.968;2023-03-25T11:04:46;11.70;1.00
34135;DHT22;20410;55.578;12.968;2023-03-25T11:07:19;11.80;1.00
34135;DHT22;20410;55.578;12.968;2023-03-25T11:09:45;11.80;1.00
34135;DHT22;20410;55.578;12.968;2023-03-25T11:12:17;12.00;1.00
34135;DHT22;20410;55.578;12.968;2023-03-25T11:14:43;12.00;1.00
34135;DHT22;20410;55.578;12.968;2023-03-25T11:17:16;12.10;1.00
34135;DHT22;20410;55.578;12.968;2023-03-25T11:19:55;12.10;1.00
34135;DHT22;20410;55.578;12.968;2023-03-25T11:22:27;12.10;1.00
34135;DHT22;20410;55.578;12.968;2023-03-25T11:25:03;12.10;1.00
34135;DHT22;20410;55.578;12.968;2023-03-25T11:27:43;12.20;1.00
34135;DHT22;20410;55.578;12.968;2023-03-25T11:30:18;12.30;1.00
34135;DHT22;20410;55.578;12.968;2023-03-25T11:32:59;12.40;1.00
34135;DHT22;20410;55.578;12.968;2023-03-25T11:35:29;12.40;1.00
34135;DHT22;20410;55.578;12.968;2023-03-25T11:38:01;12.50;1.00
34135;DHT22;20410;55.578;12.968;2023-03-25T11:40:33;12.70;1.00
34135;DHT22;20410;55.578;12.968;2023-03-25T11:43:00;12.70;1.00
34135;DHT22;20410;55.578;12.968;2023-03-25T11:45:35;12.50;1.00
34135;DHT22;20410;55.578;12.968;2023-03-25T11:48:13;12.50;1.00
34135;DHT22;20410;55.578;12.968;2023-03-25T11:50:49;12.60;1.00
34135;DHT22;20410;55.578;12.968;2023-03-25T11:53:19;12.60;1.00
34135;DHT22;20410;55.578;12.968;2023-03-25T11:55:48;12.40;1.00
34135;DHT22;20410;55.578;12.968;2023-03-25T11:58:18;12.40;1.00
34135;DHT22;20410;55.578;12.968;2023-03-25T12:00:48;12.40;1.00
34135;DHT22;20410;55.578;12.968;2023-03-25T12:05:40;12.30;1.00
34135;DHT22;20410;55.578;12.968;2023-03-25T12:08:15;12.30;1.00
34135;DHT22;20410;55.578;12.968;2023-03-25T12:21:42;12.30;1.00
34135;DHT22;20410;55.578;12.968;2023-03-25T12:33:35;12.70;1.00
34135;DHT22;20410;55.578;12.968;2023-03-25T12:44:33;13.30;1.00
34135;DHT22;20410;55.578;12.968;2023-03-25T12:47:32;13.20;1.00
34135;DHT22;20410;55.578;12.968;2023-03-25T12:50:28;13.20;1.00
34135;DHT22;20410;55.578;12.968;2023-03-25T12:53:06;13.10;1.00
34135;DHT22;20410;55.578;12.968;2023-03-25T13:01:08;13.00;1.00
34135;DHT22;20410;55.578;12.968;2023-03-25T13:07:07;13.00;1.00
34135;DHT22;20410;55.578;12.968;2023-03-25T13:09:51;13.00;1.00
34135;DHT22;20410;55.578;12.968;2023-03-25T13:12:34;12.90;1.00
34135;DHT22;20410;55.578;12.968;2023-03-25T13:15:21;12.90;1.00
34135;DHT22;20410;55.578;12.968;2023-03-25T13:18:20;12.90;1.00
34135;DHT22;20410;55.578;12.968;2023-03-25T13:21:03;13.10;1.00
34135;DHT22;20410;55.578;12.968;2023-03-25T13:23:33;13.20;1.00
34135;DHT22;20410;55.578;12.968;2023-03-25T13:26:06;13.40;1.00
34135;DHT22;20410;55.578;12.968;2023-03-25T13:31:09;13.40;1.00
34135;DHT22;20410;55.578;12.968;2023-03-25T13:33:42;13.30;1.00
34135;DHT22;20410;55.578;12.968;2023-03-25T13:36:26;13.30;1.00
34135;DHT22;20410;55.578;12.968;2023-03-25T13:39:00;13.20;1.00
34135;DHT22;20410;55.578;12.968;2023-03-25T13:41:42;13.00;1.00
34135;DHT22;20410;55.578;12.968;2023-03-25T13:49:22;12.80;1.00
34135;DHT22;20410;55.578;12.968;2023-03-25T13:51:50;12.80;1.00
34135;DHT22;20410;55.578;12.968;2023-03-25T14:08:12;12.90;1.00
34135;DHT22;20410;55.578;12.968;2023-03-25T14:28:55;12.20;1.00
34135;DHT22;20410;55.578;12.968;2023-03-25T14:44:21;12.00;1.00
34135;DHT22;20410;55.578;12.968;2023-03-25T14:47:43;11.80;1.00
34135;DHT22;20410;55.578;12.968;2023-03-25T14:52:40;11.80;1.00
34135;DHT22;20410;55.578;12.968;2023-03-25T14:57:44;11.80;1.00
34135;DHT22;20410;55.578;12.968;2023-03-25T15:00:21;11.70;1.00
34135;DHT22;20410;55.578;12.968;2023-03-25T15:02:59;11.60;1.00
34135;DHT22;20410;55.578;12.968;2023-03-25T15:05:28;11.50;1.00
34135;DHT22;20410;55.578;12.968;2023-03-25T15:10:48;11.40;1.00
34135;DHT22;20410;55.578;12.968;2023-03-25T15:13:17;11.30;1.00
34135;DHT22;20410;55.578;12.968;2023-03-25T15:18:57;11.30;1.00
34135;DHT22;20410;55.578;12.968;2023-03-25T15:21:10;11.20;1.00
34135;DHT22;20410;55.578;12.968;2023-03-25T15:23:50;11.20;1.00
34135;DHT22;20410;55.578;12.968;2023-03-25T15:26:38;11.10;1.00
34135;DHT22;20410;55.578;12.968;2023-03-25T15:29:29;11.10;1.00
34135;DHT22;20410;55.578;12.968;2023-03-25T15:40:27;10.90;1.00
34135;DHT22;20410;55.578;12.968;2023-03-25T15:49:01;11.00;1.00
34135;DHT22;20410;55.578;12.968;2023-03-25T15:54:36;11.00;1.00
34135;DHT22;20410;55.578;12.968;2023-03-25T15:57:22;10.90;1.00
34135;DHT22;20410;55.578;12.968;2023-03-25T16:03:13;10.80;1.00
34135;DHT22;20410;55.578;12.968;2023-03-25T16:05:46;10.80;1.00
34135;DHT22;20410;55.578;12.968;2023-03-25T16:08:30;10.70;1.00
34135;DHT22;20410;55.578;12.968;2023-03-25T16:11:22;10.60;1.00
34135;DHT22;20410;55.578;12.968;2023-03-25T16:14:06;10.50;1.00
34135;DHT22;20410;55.578;12.968;2023-03-25T16:16:34;10.50;1.00
34135;DHT22;20410;55.578;12.968;2023-03-25T16:19:03;10.50;1.00
34135;DHT22;20410;55.578;12.968;2023-03-25T16:21:32;10.50;1.00
34135;DHT22;20410;55.578;12.968;2023-03-25T16:24:02;10.50;1.00
34135;DHT22;20410;55.578;12.968;2023-03-25T16:26:38;10.50;1.00
34135;DHT22;20410;55.578;12.968;2023-03-25T16:29:22;10.60;1.00
34135;DHT22;20410;55.578;12.968;2023-03-25T16:31:59;10.70;1.00
34135;DHT22;20410;55.578;12.968;2023-03-25T16:34:27;10.70;1.00
34135;DHT22;20410;55.578;12.968;2023-03-25T16:36:54;10.70;1.00
34135;DHT22;20410;55.578;12.968;2023-03-25T16:39:22;10.80;1.00
34135;DHT22;20410;55.578;12.968;2023-03-25T16:41:50;10.70;1.00
34135;DHT22;20410;55.578;12.968;2023-03-25T16:44:20;10.70;1.00
34135;DHT22;20410;55.578;12.968;2023-03-25T16:46:49;10.60;1.00
34135;DHT22;20410;55.578;12.968;2023-03-25T16:49:30;10.50;1.00
34135;DHT22;20410;55.578;12.968;2023-03-25T16:51:57;10.40;1.00
34135;DHT22;20410;55.578;12.968;2023-03-25T16:54:36;10.30;1.00
34135;DHT22;20410;55.578;12.968;2023-03-25T16:57:06;10.20;1.00
34135;DHT22;20410;55.578;12.968;2023-03-25T16:59:36;10.10;1.00
34135;DHT22;20410;55.578;12.968;2023-03-25T17:02:03;10.10;1.00
34135;DHT22;20410;55.578;12.968;2023-03-25T17:04:39;10.00;1.00
34135;DHT22;20410;55.578;12.968;2023-03-25T17:07:19;9.90;1.00
34135;DHT22;20410;55.578;12.968;2023-03-25T17:09:52;9.80;1.00
34135;DHT22;20410;55.578;12.968;2023-03-25T17:12:20;9.80;1.00
34135;DHT22;20410;55.578;12.968;2023-03-25T17:14:48;9.70;1.00
34135;DHT22;20410;55.578;12.968;2023-03-25T17:17:38;9.60;1.00
34135;DHT22;20410;55.578;12.968;2023-03-25T17:20:11;9.60;1.00
34135;DHT22;20410;55.578;12.968;2023-03-25T17:22:40;9.60;1.00
34135;DHT22;20410;55.578;12.968;2023-03-25T17:25:23;9.50;1.00
34135;DHT22;20410;55.578;12.968;2023-03-25T17:27:56;9.50;1.00
34135;DHT22;20410;55.578;12.968;2023-03-25T17:33:18;9.50;1.00
34135;DHT22;20410;55.578;12.968;2023-03-25T17:35:50;9.40;1.00
34135;DHT22;20410;55.578;12.968;2023-03-25T17:38:32;9.40;1.00
34135;DHT22;20410;55.578;12.968;2023-03-25T17:41:01;9.30;1.00
34135;DHT22;20410;55.578;12.968;2023-03-25T17:43:30;9.20;1.00
34135;DHT22;20410;55.578;12.968;2023-03-25T17:45:57;9.20;1.00
34135;DHT22;20410;55.578;12.968;2023-03-25T17:48:23;9.10;1.00
34135;DHT22;20410;55.578;12.968;2023-03-25T17:50:53;9.00;1.00
34135;DHT22;20410;55.578;12.968;2023-03-25T17:53:20;9.00;1.00
34135;DHT22;20410;55.578;12.968;2023-03-25T17:55:47;8.90;1.00
34135;DHT22;20410;55.578;12.968;2023-03-25T17:58:13;8.90;1.00
34135;DHT22;20410;55.578;12.968;2023-03-25T18:00:40;8.90;1.00
34135;DHT22;20410;55.578;12.968;2023-03-25T18:03:14;8.90;1.00
34135;DHT22;20410;55.578;12.968;2023-03-25T18:05:40;8.90;1.00
34135;DHT22;20410;55.578;12.968;2023-03-25T18:08:11;8.90;1.00
34135;DHT22;20410;55.578;12.968;2023-03-25T18:10:37;8.90;1.00
34135;DHT22;20410;55.578;12.968;2023-03-25T18:13:03;8.90;1.00
34135;DHT22;20410;55.578;12.968;2023-03-25T18:15:30;8.90;1.00
34135;DHT22;20410;55.578;12.968;2023-03-25T18:17:56;8.90;1.00
34135;DHT22;20410;55.578;12.968;2023-03-25T18:20:29;9.00;1.00
34135;DHT22;20410;55.578;12.968;2023-03-25T18:22:55;8.90;1.00
34135;DHT22;20410;55.578;12.968;2023-03-25T18:25:21;8.90;1.00
34135;DHT22;20410;55.578;12.968;2023-03-25T18:27:51;9.00;1.00
34135;DHT22;20410;55.578;12.968;2023-03-25T18:30:26;9.00;1.00
34135;DHT22;20410;55.578;12.968;2023-03-25T18:32:53;9.00;1.00
34135;DHT22;20410;55.578;12.968;2023-03-25T18:35:19;9.00;1.00
34135;DHT22;20410;55.578;12.968;2023-03-25T18:37:45;9.00;1.00
34135;DHT22;20410;55.578;12.968;2023-03-25T18:40:26;9.00;1.00
34135;DHT22;20410;55.578;12.968;2023-03-25T18:42:53;9.00;1.00
34135;DHT22;20410;55.578;12.968;2023-03-25T18:45:20;9.00;1.00
34135;DHT22;20410;55.578;12.968;2023-03-25T18:47:47;9.00;1.00
34135;DHT22;20410;55.578;12.968;2023-03-25T18:50:32;9.00;1.00
34135;DHT22;20410;55.578;12.968;2023-03-25T18:52:58;9.00;1.00
34135;DHT22;20410;55.578;12.968;2023-03-25T18:55:25;9.00;1.00
34135;DHT22;20410;55.578;12.968;2023-03-25T18:57:52;9.00;1.00
34135;DHT22;20410;55.578;12.968;2023-03-25T19:00:21;9.00;1.00
34135;DHT22;20410;55.578;12.968;2023-03-25T19:02:51;9.00;1.00